Time;durP1;ratioP1;P1;durP2;ratioP2;P2;SDS_P1;SDS_P2;PMS_P1;PMS_P2;Temp;Humidity;BMP_temperature;BMP_pressure;BME280_temperature;BME280_humidity;BME280_pressure;Samples;Min_cycle;Max_cycle;Signal;HPM_P1;HPM_P2
2022/10/27 00:00:04;;;;;;;4.93;2.60;;;;;;;14.06;66.62;102018.81;5005548;28;99684;-80
2022/10/27 00:02:30;;;;;;;5.33;2.17;;;;;;;14.07;66.54;102030.63;4996668;27;97338;-79
2022/10/27 00:04:55;;;;;;;4.40;2.90;;;;;;;14.05;66.70;102014.50;5001099;28;97624;-80
2022/10/27 00:07:20;;;;;;;8.47;2.80;;;;;;;14.03;66.86;102019.78;5006947;28;102677;-79
2022/10/27 00:09:46;;;;;;;4.60;2.33;;;;;;;14.02;66.76;102023.03;4999537;28;97877;-79
2022/10/27 00:12:11;;;;;;;2.97;2.50;;;;;;;14.03;66.84;102024.53;5000376;27;97186;-80
2022/10/27 00:14:37;;;;;;;2.67;2.20;;;;;;;14.03;66.82;102030.06;5003331;27;96958;-80
2022/10/27 00:17:02;;;;;;;5.87;2.60;;;;;;;14.02;66.85;102031.34;5003325;28;97867;-79
2022/10/27 00:19:27;;;;;;;4.13;3.00;;;;;;;14.02;66.84;102036.88;4996270;28;97884;-79
2022/10/27 00:21:53;;;;;;;15.83;2.50;;;;;;;14.01;66.77;102044.41;4995930;27;97344;-79
2022/10/27 00:24:19;;;;;;;5.77;2.37;;;;;;;14.01;66.71;102038.88;5009131;27;96728;-80
2022/10/27 00:26:45;;;;;;;2.33;2.20;;;;;;;14.02;66.58;102028.56;5008467;28;100524;-79
2022/10/27 00:29:11;;;;;;;11.23;2.60;;;;;;;13.99;66.64;102035.06;5005527;27;97413;-79
2022/10/27 00:31:36;;;;;;;3.87;2.27;;;;;;;13.99;66.76;102048.88;5001930;27;97341;-80
2022/10/27 00:34:02;;;;;;;2.40;2.20;;;;;;;14.01;66.74;102036.09;4999319;28;97399;-80
2022/10/27 00:36:27;;;;;;;5.53;2.53;;;;;;;14.02;66.78;102034.09;4998333;28;97531;-80
2022/10/27 00:38:54;;;;;;;6.97;2.00;;;;;;;14.04;66.88;102035.13;5003216;27;97656;-80
2022/10/27 00:41:35;;;;;;;5.00;2.90;;;;;;;14.06;66.95;102040.97;4994691;28;96910;-80
2022/10/27 00:44:22;;;;;;;7.00;2.57;;;;;;;14.07;66.88;102041.69;5006298;28;96567;-80
2022/10/27 00:46:49;;;;;;;5.73;2.53;;;;;;;14.08;67.13;102037.69;5001837;28;103375;-80
2022/10/27 00:49:18;;;;;;;6.07;2.67;;;;;;;14.09;66.95;102041.97;5003245;27;97401;-80
2022/10/27 00:51:51;;;;;;;3.73;2.40;;;;;;;14.15;67.21;102054.66;5007725;28;97790;-79
2022/10/27 00:54:19;;;;;;;3.20;2.50;;;;;;;14.19;67.10;102051.69;5013752;27;97191;-80
2022/10/27 00:56:48;;;;;;;5.07;2.80;;;;;;;14.24;67.03;102054.50;5000855;28;101599;-80
2022/10/27 00:59:14;;;;;;;7.63;3.10;;;;;;;14.27;67.08;102056.31;4992452;27;97355;-80
2022/10/27 01:01:40;;;;;;;3.60;2.27;;;;;;;14.29;67.13;102047.56;5001443;28;97093;-80
2022/10/27 01:04:07;;;;;;;4.43;2.63;;;;;;;14.30;67.21;102053.88;5006010;27;97308;-80
2022/10/27 01:06:33;;;;;;;2.60;2.40;;;;;;;14.34;67.20;102046.88;5003871;27;97398;-79
2022/10/27 01:08:59;;;;;;;9.63;2.73;;;;;;;14.34;67.16;102055.19;5004947;27;97345;-80
2022/10/27 01:11:25;;;;;;;6.10;2.63;;;;;;;14.34;67.13;102062.72;4999782;28;97436;-80
2022/10/27 01:13:50;;;;;;;4.43;2.30;;;;;;;14.35;67.14;102061.50;5005831;28;97253;-80
2022/10/27 01:16:34;;;;;;;2.80;2.60;;;;;;;14.34;67.40;102055.19;5005505;28;97873;-79
2022/10/27 01:19:18;;;;;;;6.27;3.03;;;;;;;14.35;67.13;102053.91;5000548;27;98690;-79
2022/10/27 01:21:58;;;;;;;2.40;2.20;;;;;;;14.33;67.32;102064.72;4995418;27;96999;-80
2022/10/27 01:24:42;;;;;;;9.47;3.60;;;;;;;14.35;67.29;102056.69;4997921;28;97656;-79
2022/10/27 01:27:14;;;;;;;2.30;2.10;;;;;;;14.36;67.29;102057.47;5000900;28;99928;-79
2022/10/27 01:29:57;;;;;;;4.73;2.60;;;;;;;14.36;67.19;102061.00;5000766;27;97066;-79
2022/10/27 01:32:36;;;;;;;11.33;2.47;;;;;;;14.37;67.32;102064.53;5003437;27;97016;-79
2022/10/27 01:35:19;;;;;;;3.53;3.23;;;;;;;14.35;67.47;102056.69;5004618;27;97137;-80
2022/10/27 01:38:05;;;;;;;4.17;2.70;;;;;;;14.37;67.50;102059.75;4995965;28;100304;-80
2022/10/27 01:40:42;;;;;;;6.20;2.40;;;;;;;14.38;67.44;102060.50;4992528;27;103904;-80
2022/10/27 01:43:18;;;;;;;3.83;2.47;;;;;;;14.40;67.39;102069.84;5014707;27;97038;-79
2022/10/27 01:45:45;;;;;;;5.53;2.70;;;;;;;14.40;67.31;102061.53;5006160;27;97466;-80
2022/10/27 01:48:11;;;;;;;5.07;2.77;;;;;;;14.41;67.18;102060.31;4997504;27;97394;-80
2022/10/27 01:50:39;;;;;;;6.20;3.50;;;;;;;14.42;67.29;102056.28;4997544;28;98635;-80
2022/10/27 01:53:05;;;;;;;5.77;3.10;;;;;;;14.42;67.33;102083.22;5008161;27;96900;-79
2022/10/27 01:56:06;;;;;;;10.50;2.70;;;;;;;14.42;67.46;102070.13;5004677;28;97208;-80
2022/10/27 01:58:56;;;;;;;4.30;2.93;;;;;;;14.42;67.51;102075.66;4996033;28;104333;-80
2022/10/27 02:01:29;;;;;;;4.07;2.57;;;;;;;14.41;67.35;102068.63;5003853;28;100230;-80
2022/10/27 02:03:54;;;;;;;4.73;2.90;;;;;;;14.41;67.35;102076.94;5008599;27;97241;-80
2022/10/27 02:06:28;;;;;;;2.83;2.40;;;;;;;14.42;67.39;102083.22;5001321;27;97448;-80
2022/10/27 02:09:15;;;;;;;5.50;2.40;;;;;;;14.43;67.41;102087.50;5007283;28;103998;-80
2022/10/27 02:11:45;;;;;;;9.30;3.00;;;;;;;14.42;67.36;102083.97;5005270;28;100353;-80
2022/10/27 02:14:11;;;;;;;5.13;3.10;;;;;;;14.44;67.27;102081.47;5007556;27;97200;-80
2022/10/27 02:16:41;;;;;;;3.50;3.20;;;;;;;14.47;67.25;102104.69;5002427;27;96735;-80
2022/10/27 02:19:12;;;;;;;5.10;3.40;;;;;;;14.49;67.42;102093.88;5001484;28;99571;-80
2022/10/27 02:21:40;;;;;;;6.97;3.60;;;;;;;14.50;67.37;102096.19;5006218;27;98637;-80
2022/10/27 02:24:06;;;;;;;5.07;2.87;;;;;;;14.49;67.45;102104.97;5002676;27;97227;-80
2022/10/27 02:26:44;;;;;;;5.50;2.90;;;;;;;14.51;67.52;102102.47;5011490;27;97226;-80
2022/10/27 02:29:18;;;;;;;4.17;3.10;;;;;;;14.51;67.46;102106.00;5005471;28;102317;-80
2022/10/27 02:31:48;;;;;;;5.80;3.10;;;;;;;14.50;67.44;102114.81;4995227;28;103543;-79
2022/10/27 02:34:15;;;;;;;3.73;3.30;;;;;;;14.48;67.33;102112.50;5001276;28;96742;-80
2022/10/27 02:36:41;;;;;;;5.10;3.63;;;;;;;14.45;67.45;102127.31;5000731;27;97055;-80
2022/10/27 02:39:06;;;;;;;3.33;3.03;;;;;;;14.46;67.48;102133.63;5000595;27;99522;-80
2022/10/27 02:41:31;;;;;;;7.60;3.47;;;;;;;14.43;67.31;102129.81;5002572;28;97182;-80
2022/10/27 02:43:57;;;;;;;4.10;2.77;;;;;;;14.43;67.42;102118.75;5001103;27;97019;-80
2022/10/27 02:46:22;;;;;;;9.97;3.20;;;;;;;14.40;67.42;102116.94;5003188;28;97241;-80
2022/10/27 02:48:48;;;;;;;8.77;3.27;;;;;;;14.38;67.43;102116.66;5008635;27;99707;-80
2022/10/27 02:51:13;;;;;;;3.57;3.10;;;;;;;14.37;67.41;102122.69;5003499;27;97240;-80
2022/10/27 02:53:38;;;;;;;6.10;3.60;;;;;;;14.34;67.34;102112.56;5000564;28;97095;-80
2022/10/27 02:56:04;;;;;;;4.63;3.73;;;;;;;14.31;67.34;102119.81;4999706;27;97328;-80
2022/10/27 02:58:29;;;;;;;3.60;3.17;;;;;;;14.27;67.49;102108.16;5003625;27;98589;-80
2022/10/27 03:00:55;;;;;;;5.17;3.60;;;;;;;14.27;67.39;102122.78;5004787;28;97280;-80
2022/10/27 03:03:21;;;;;;;4.73;3.20;;;;;;;14.25;67.43;102130.03;5007676;27;97293;-79
2022/10/27 03:05:47;;;;;;;8.77;3.97;;;;;;;14.24;67.47;102120.22;5001793;28;96930;-81
2022/10/27 03:08:13;;;;;;;7.40;3.83;;;;;;;14.23;67.37;102121.44;5006350;27;96833;-79
2022/10/27 03:10:38;;;;;;;4.90;3.43;;;;;;;14.17;67.33;102121.38;4994291;27;97188;-80
2022/10/27 03:13:03;;;;;;;5.00;3.80;;;;;;;14.13;67.37;102115.25;5006443;27;96977;-80
2022/10/27 03:15:29;;;;;;;7.53;3.60;;;;;;;14.11;67.53;102130.81;5001847;27;96726;-79
2022/10/27 03:17:54;;;;;;;4.23;3.83;;;;;;;14.08;67.29;102129.78;5007233;27;99543;-80
2022/10/27 03:20:20;;;;;;;5.37;3.93;;;;;;;14.07;67.49;102119.97;5002558;27;98904;-80
2022/10/27 03:22:45;;;;;;;5.47;4.03;;;;;;;14.03;67.32;102121.41;4998419;27;97128;-80
2022/10/27 03:25:13;;;;;;;6.43;4.13;;;;;;;14.04;67.34;102131.25;5000279;27;96978;-80
2022/10/27 03:27:39;;;;;;;3.77;3.40;;;;;;;14.02;67.39;102128.19;5004550;27;99596;-80
2022/10/27 03:30:06;;;;;;;5.20;2.90;;;;;;;13.99;67.25;102137.44;5000308;27;97888;-80
2022/10/27 03:32:32;;;;;;;2.80;2.57;;;;;;;13.97;67.38;102126.88;4998976;28;96914;-80
2022/10/27 03:34:57;;;;;;;2.97;2.77;;;;;;;13.98;67.47;102130.38;4996929;27;96781;-80
2022/10/27 03:37:23;;;;;;;4.47;2.83;;;;;;;13.97;67.38;102139.94;4998772;27;97659;-80
2022/10/27 03:39:48;;;;;;;3.33;2.97;;;;;;;13.95;67.31;102137.66;4994334;28;98074;-80
2022/10/27 03:42:13;;;;;;;2.93;2.53;;;;;;;13.95;67.26;102137.66;5003484;28;96762;-81
2022/10/27 03:44:39;;;;;;;3.30;3.00;;;;;;;13.92;67.19;102130.28;5011254;27;101612;-80
2022/10/27 03:47:04;;;;;;;4.13;2.20;;;;;;;13.91;67.25;102128.75;5001957;27;97830;-82
2022/10/27 03:49:30;;;;;;;2.40;2.20;;;;;;;13.89;67.34;102141.56;5003510;27;97131;-80
2022/10/27 03:51:55;;;;;;;3.00;2.43;;;;;;;13.85;67.32;102146.50;5008486;27;96520;-80
2022/10/27 03:54:20;;;;;;;3.30;3.00;;;;;;;13.81;67.22;102146.72;4994057;27;96788;-80
2022/10/27 03:56:46;;;;;;;2.70;2.50;;;;;;;13.75;67.21;102153.41;5005510;27;97380;-80
2022/10/27 03:59:11;;;;;;;4.83;2.67;;;;;;;13.74;67.23;102163.69;5003201;27;97792;-80
2022/10/27 04:01:37;;;;;;;2.60;2.40;;;;;;;13.68;66.95;102153.78;5005401;27;97061;-80
2022/10/27 04:04:03;;;;;;;2.60;2.40;;;;;;;13.66;67.15;102153.50;5002748;27;97007;-80
2022/10/27 04:06:29;;;;;;;2.33;1.93;;;;;;;13.60;67.02;102158.94;5007696;27;104912;-81
2022/10/27 04:08:55;;;;;;;6.13;2.10;;;;;;;13.60;67.21;102169.22;5015067;27;96961;-81
2022/10/27 04:11:20;;;;;;;2.70;2.20;;;;;;;13.59;67.10;102157.41;5013906;27;96862;-80
2022/10/27 04:13:46;;;;;;;2.60;2.40;;;;;;;13.57;67.22;102151.59;5011968;27;97031;-80
2022/10/27 04:16:12;;;;;;;3.87;2.13;;;;;;;13.53;67.01;102154.56;5019792;27;96914;-81
2022/10/27 04:18:37;;;;;;;4.03;3.10;;;;;;;13.52;67.05;102146.72;5015565;27;97081;-81
2022/10/27 04:21:05;;;;;;;4.30;2.57;;;;;;;13.49;67.26;102165.03;5011212;27;96523;-81
2022/10/27 04:23:30;;;;;;;2.70;2.30;;;;;;;13.49;67.20;102153.97;5027144;27;97049;-81
2022/10/27 04:25:57;;;;;;;4.17;2.70;;;;;;;13.48;67.10;102163.50;5007212;27;97178;-81
2022/10/27 04:28:23;;;;;;;7.50;2.40;;;;;;;13.47;67.32;102150.94;5014527;27;97440;-80
2022/10/27 04:30:48;;;;;;;3.67;2.97;;;;;;;13.43;67.20;102155.84;5006648;27;97199;-80
2022/10/27 04:33:14;;;;;;;3.97;2.73;;;;;;;13.44;67.26;102148.34;5010343;28;97267;-81
2022/10/27 04:35:39;;;;;;;2.40;2.20;;;;;;;13.41;67.32;102152.81;5006467;28;98436;-80
2022/10/27 04:38:04;;;;;;;1.93;1.83;;;;;;;13.37;67.40;102152.22;5009793;28;97414;-80
2022/10/27 04:40:30;;;;;;;7.17;2.57;;;;;;;13.38;67.26;102145.47;5008860;28;96939;-80
2022/10/27 04:42:55;;;;;;;7.60;2.40;;;;;;;13.36;67.22;102153.50;5012705;28;97204;-81
2022/10/27 04:45:21;;;;;;;6.60;2.60;;;;;;;13.37;67.14;102143.94;5013791;27;97911;-80
2022/10/27 04:47:46;;;;;;;6.93;2.13;;;;;;;13.36;67.12;102145.19;5010266;27;96653;-81
2022/10/27 04:50:13;;;;;;;3.93;2.50;;;;;;;13.34;67.17;102153.22;5008880;28;96736;-80
2022/10/27 04:52:40;;;;;;;2.13;2.00;;;;;;;13.31;66.99;102153.38;5005947;28;97002;-81
2022/10/27 04:55:06;;;;;;;5.20;2.00;;;;;;;13.28;67.04;102144.03;5013645;27;100000;-81
2022/10/27 04:57:32;;;;;;;3.37;2.67;;;;;;;13.24;67.25;102151.75;5002719;27;99771;-81
2022/10/27 04:59:57;;;;;;;2.87;2.17;;;;;;;13.22;67.05;102139.63;5009283;27;96852;-81
2022/10/27 05:02:23;;;;;;;2.47;2.27;;;;;;;13.18;66.97;102134.31;5007098;28;97348;-81
2022/10/27 05:04:48;;;;;;;2.57;1.90;;;;;;;13.17;67.36;102152.09;5005915;28;101735;-80
2022/10/27 05:07:13;;;;;;;4.30;2.50;;;;;;;13.18;67.20;102159.16;5001706;28;96638;-81
2022/10/27 05:09:39;;;;;;;3.73;2.17;;;;;;;13.16;67.24;102150.59;5015275;27;96895;-81
2022/10/27 05:12:08;;;;;;;4.87;2.23;;;;;;;13.16;67.33;102138.78;5012255;27;96976;-80
2022/10/27 05:14:34;;;;;;;2.23;2.13;;;;;;;13.18;67.29;102145.34;4999537;27;98621;-81
2022/10/27 05:16:59;;;;;;;2.57;2.00;;;;;;;13.16;67.22;102142.31;5004627;28;99492;-81
2022/10/27 05:19:24;;;;;;;4.77;2.00;;;;;;;13.15;67.27;102162.88;5007525;28;97561;-81
2022/10/27 05:21:50;;;;;;;2.93;2.13;;;;;;;13.14;67.26;102158.59;5003374;28;97552;-81
2022/10/27 05:24:15;;;;;;;4.23;2.20;;;;;;;13.13;67.28;102165.34;5012296;27;98981;-80
2022/10/27 05:26:41;;;;;;;3.50;2.70;;;;;;;13.11;67.13;102159.53;5009382;28;97362;-80
2022/10/27 05:29:06;;;;;;;13.03;2.50;;;;;;;13.10;67.32;102160.78;5012425;27;96933;-82
2022/10/27 05:31:32;;;;;;;6.20;2.50;;;;;;;13.10;67.21;102165.53;5007924;27;97037;-81
2022/10/27 05:33:57;;;;;;;3.23;2.13;;;;;;;13.08;67.23;102145.91;5007195;27;97327;-81
2022/10/27 05:36:23;;;;;;;1.80;1.70;;;;;;;13.06;67.20;102157.41;5009790;27;97171;-81
2022/10/27 05:38:48;;;;;;;2.80;2.07;;;;;;;13.05;67.16;102155.91;5012861;28;96750;-81
2022/10/27 05:41:14;;;;;;;2.30;2.07;;;;;;;13.02;67.18;102165.09;5001468;27;97266;-81
2022/10/27 05:43:40;;;;;;;4.00;2.20;;;;;;;13.01;67.14;102163.59;5004504;27;98695;-81
2022/10/27 05:46:06;;;;;;;7.93;2.10;;;;;;;13.02;67.32;102162.34;5004929;28;98663;-81
2022/10/27 05:48:32;;;;;;;1.73;1.63;;;;;;;13.02;67.31;102161.59;5009275;27;102025;-81
2022/10/27 05:50:57;;;;;;;1.70;1.60;;;;;;;13.00;67.22;102172.31;5005714;28;97007;-81
2022/10/27 05:53:23;;;;;;;10.00;2.10;;;;;;;12.98;67.25;102161.75;5005728;28;98513;-81
2022/10/27 05:55:52;;;;;;;3.50;1.90;;;;;;;13.01;67.22;102162.81;5001496;28;97277;-81
2022/10/27 05:58:17;;;;;;;1.93;1.70;;;;;;;12.99;67.17;102165.28;5014437;27;97191;-81
2022/10/27 06:00:43;;;;;;;2.67;1.87;;;;;;;12.98;67.23;102164.53;5007851;28;96796;-81
2022/10/27 06:03:18;;;;;;;9.63;1.50;;;;;;;13.01;67.25;102165.56;5011864;28;98940;-81
2022/10/27 06:05:44;;;;;;;5.37;2.03;;;;;;;12.98;67.25;102172.03;5006224;27;103743;-81
2022/10/27 06:08:09;;;;;;;3.50;1.80;;;;;;;12.95;67.24;102175.75;5005096;27;96734;-81
2022/10/27 06:10:34;;;;;;;1.97;1.87;;;;;;;12.94;67.44;102166.69;5006842;27;96901;-80
2022/10/27 06:13:01;;;;;;;2.33;2.13;;;;;;;12.94;67.24;102172.22;5004960;28;98427;-81
2022/10/27 06:15:28;;;;;;;3.10;1.70;;;;;;;12.94;67.35;102163.94;5014390;27;97078;-81
2022/10/27 06:17:53;;;;;;;4.40;2.00;;;;;;;12.94;67.31;102177.75;5014220;28;97290;-80
2022/10/27 06:20:18;;;;;;;3.23;2.00;;;;;;;12.95;67.41;102165.47;5011295;27;97212;-80
2022/10/27 06:22:47;;;;;;;2.17;1.97;;;;;;;12.96;67.55;102157.94;5000636;27;97562;-80
2022/10/27 06:25:12;;;;;;;2.13;1.67;;;;;;;12.98;67.53;102170.03;5013684;28;96831;-80
2022/10/27 06:27:38;;;;;;;3.27;1.80;;;;;;;13.00;67.60;102170.34;5010489;28;96780;-81
2022/10/27 06:30:04;;;;;;;2.90;1.60;;;;;;;12.99;67.50;102166.06;5007133;28;97056;-80
2022/10/27 06:32:29;;;;;;;4.17;1.90;;;;;;;13.01;67.49;102174.63;5011992;28;100667;-80
2022/10/27 06:34:54;;;;;;;2.77;1.83;;;;;;;13.02;67.55;102175.41;5013177;28;98035;-81
2022/10/27 06:37:20;;;;;;;3.37;1.90;;;;;;;13.02;67.66;102169.88;5008574;28;97245;-81
2022/10/27 06:39:46;;;;;;;5.13;2.00;;;;;;;13.01;67.51;102184.91;5001589;28;96796;-81
2022/10/27 06:42:11;;;;;;;1.87;1.77;;;;;;;12.97;67.57;102187.09;4998844;27;97732;-80
2022/10/27 06:44:37;;;;;;;5.23;2.50;;;;;;;12.95;67.65;102182.06;5005170;27;96891;-81
2022/10/27 06:47:02;;;;;;;6.77;2.87;;;;;;;12.95;67.81;102193.09;5013936;27;96992;-81
2022/10/27 06:49:28;;;;;;;4.97;1.67;;;;;;;12.99;67.82;102188.16;5013131;27;97098;-81
2022/10/27 06:51:54;;;;;;;2.87;2.30;;;;;;;13.02;67.63;102200.28;5007774;28;97838;-81
2022/10/27 06:54:19;;;;;;;10.33;2.37;;;;;;;13.01;67.76;102191.22;5010989;28;98021;-80
2022/10/27 06:56:45;;;;;;;2.53;2.10;;;;;;;13.06;67.85;102198.13;5003242;28;97385;-81
2022/10/27 06:59:10;;;;;;;4.23;2.00;;;;;;;13.08;67.70;102190.88;5006951;28;97038;-81
2022/10/27 07:01:35;;;;;;;2.13;1.90;;;;;;;13.13;67.93;102206.81;5008411;28;97202;-81
2022/10/27 07:04:01;;;;;;;9.23;2.10;;;;;;;13.15;67.75;102209.84;5005306;28;97162;-81
2022/10/27 07:06:26;;;;;;;5.37;2.20;;;;;;;13.18;67.73;102216.44;5009843;28;97024;-81
2022/10/27 07:08:52;;;;;;;1.87;1.77;;;;;;;13.21;67.81;102198.91;4997679;28;98893;-81
2022/10/27 07:11:18;;;;;;;2.57;1.40;;;;;;;13.20;67.80;102225.78;5000490;28;96768;-81
2022/10/27 07:13:43;;;;;;;1.60;1.50;;;;;;;13.21;67.76;102207.97;5004345;27;97092;-81
2022/10/27 07:16:09;;;;;;;2.97;1.70;;;;;;;13.23;67.95;102205.50;5001015;27;97150;-81
2022/10/27 07:18:37;;;;;;;4.40;1.90;;;;;;;13.27;67.93;102208.09;5007882;27;97229;-81
2022/10/27 07:21:05;;;;;;;1.83;1.43;;;;;;;13.29;68.03;102206.38;4999156;27;97142;-81
2022/10/27 07:23:31;;;;;;;6.63;1.70;;;;;;;13.33;67.95;102204.19;5004430;27;98627;-80
2022/10/27 07:25:56;;;;;;;9.70;1.80;;;;;;;13.36;67.92;102208.00;5005395;27;96930;-81
2022/10/27 07:28:21;;;;;;;2.93;1.27;;;;;;;13.41;68.06;102207.34;5003376;28;97385;-81
2022/10/27 07:30:47;;;;;;;2.83;1.83;;;;;;;13.44;67.85;102209.94;5002005;28;97945;-81
2022/10/27 07:33:14;;;;;;;3.87;1.20;;;;;;;13.46;67.92;102209.44;4995226;27;96853;-81
2022/10/27 07:35:40;;;;;;;3.40;1.40;;;;;;;13.50;67.85;102218.31;5008035;27;97239;-81
2022/10/27 07:38:06;;;;;;;2.47;1.23;;;;;;;13.57;67.98;102228.25;4986507;28;97283;-81
2022/10/27 07:40:33;;;;;;;1.53;1.43;;;;;;;13.61;68.04;102231.63;4992336;27;97723;-81
2022/10/27 07:42:59;;;;;;;3.03;1.40;;;;;;;13.62;67.84;102227.59;4999261;28;97021;-81
2022/10/27 07:45:26;;;;;;;8.33;1.23;;;;;;;13.65;67.94;102226.66;5008724;28;96769;-80
2022/10/27 07:47:54;;;;;;;1.50;1.40;;;;;;;13.66;68.05;102226.16;5001074;27;97046;-81
2022/10/27 07:50:22;;;;;;;3.70;1.10;;;;;;;13.69;67.91;102244.59;5009599;27;98074;-81
2022/10/27 07:52:50;;;;;;;1.57;1.33;;;;;;;13.70;67.88;102253.63;5017761;27;98198;-81
2022/10/27 07:55:17;;;;;;;4.97;1.10;;;;;;;13.73;67.68;102233.34;5003026;27;96826;-81
2022/10/27 07:57:43;;;;;;;3.40;1.50;;;;;;;13.72;67.89;102242.84;5004986;27;96812;-82
2022/10/27 08:00:11;;;;;;;6.57;1.80;;;;;;;13.73;67.85;102233.34;5005305;27;96661;-81
2022/10/27 08:02:37;;;;;;;1.40;1.30;;;;;;;13.73;68.16;102242.41;5004976;28;97352;-80
2022/10/27 08:05:03;;;;;;;4.73;1.57;;;;;;;13.75;68.03;102242.69;5003240;27;96834;-82
2022/10/27 08:07:28;;;;;;;6.30;1.43;;;;;;;13.74;67.99;102252.22;5000771;28;97000;-81
2022/10/27 08:09:54;;;;;;;5.60;1.80;;;;;;;13.73;68.05;102236.09;5002362;27;97138;-80
2022/10/27 08:12:20;;;;;;;1.67;1.03;;;;;;;13.75;68.18;102256.50;4999904;28;96964;-81
2022/10/27 08:14:45;;;;;;;2.73;1.73;;;;;;;13.79;68.38;102254.31;5003075;27;97594;-81
2022/10/27 08:17:12;;;;;;;3.70;1.77;;;;;;;13.85;68.23;102254.41;4999932;27;96890;-81
2022/10/27 08:19:38;;;;;;;9.40;1.93;;;;;;;13.89;68.05;102255.75;5000130;27;97251;-81
2022/10/27 08:22:03;;;;;;;1.60;1.43;;;;;;;13.94;68.24;102265.38;5004196;27;96662;-81
2022/10/27 08:24:29;;;;;;;4.87;1.57;;;;;;;13.99;68.32;102259.19;5010548;27;99932;-81
2022/10/27 08:26:54;;;;;;;2.57;1.60;;;;;;;14.02;68.21;102253.47;5008036;27;97477;-81
2022/10/27 08:29:19;;;;;;;3.90;1.60;;;;;;;14.06;68.26;102262.38;5004332;28;97177;-81
2022/10/27 08:31:45;;;;;;;2.27;1.43;;;;;;;14.10;68.39;102248.31;5006339;27;97360;-81
2022/10/27 08:34:10;;;;;;;5.47;1.17;;;;;;;14.19;68.38;102248.22;5003633;27;96357;-81
2022/10/27 08:36:38;;;;;;;3.23;1.40;;;;;;;14.27;68.32;102255.66;5007724;28;96917;-81
2022/10/27 08:39:08;;;;;;;1.20;1.10;;;;;;;14.36;68.48;102252.06;4999838;27;98029;-81
2022/10/27 08:41:59;;;;;;;4.47;1.20;;;;;;;14.45;68.77;102237.31;4991334;28;99338;-81
2022/10/27 08:44:58;;;;;;;8.30;1.50;;;;;;;14.50;69.12;102245.75;4998566;28;98602;-81
2022/10/27 08:47:27;;;;;;;3.50;1.10;;;;;;;14.59;68.55;102250.41;4982607;28;97517;-81
2022/10/27 08:49:52;;;;;;;2.93;1.37;;;;;;;14.68;68.45;102241.94;4994484;28;98413;-81
2022/10/27 08:52:18;;;;;;;3.30;1.57;;;;;;;14.75;68.59;102239.53;5001381;28;98659;-81
2022/10/27 08:54:50;;;;;;;9.27;1.60;;;;;;;14.82;68.58;102247.47;5006255;28;96975;-81
2022/10/27 08:57:23;;;;;;;3.10;1.60;;;;;;;14.92;68.43;102240.53;5001766;27;97318;-82
2022/10/27 08:59:51;;;;;;;1.80;1.10;;;;;;;14.99;68.62;102244.91;5004326;27;101109;-81
2022/10/27 09:02:42;;;;;;;2.17;1.50;;;;;;;15.09;69.12;102242.78;4999226;28;101036;-81
2022/10/27 09:05:18;;;;;;;3.33;1.33;;;;;;;15.20;68.77;102251.22;5000811;27;97038;-81
2022/10/27 09:08:30;;;;;;;2.20;1.23;;;;;;;15.25;69.23;102245.72;4997457;27;97140;-81
2022/10/27 09:11:14;;;;;;;2.27;0.93;;;;;;;15.35;69.07;102246.38;5000673;27;103059;-82
2022/10/27 09:13:54;;;;;;;1.40;1.30;;;;;;;15.44;69.11;102249.75;4976639;28;103279;-82
2022/10/27 09:16:32;;;;;;;3.67;1.70;;;;;;;15.54;68.93;102255.94;4999337;28;96967;-81
2022/10/27 09:19:00;;;;;;;7.10;1.60;;;;;;;15.64;68.86;102240.66;5006591;28;97426;-81
2022/10/27 09:21:27;;;;;;;9.13;1.80;;;;;;;15.74;68.76;102242.03;5002270;27;98016;-81
2022/10/27 09:23:57;;;;;;;7.07;1.70;;;;;;;15.85;68.93;102241.38;5001809;28;96992;-82
2022/10/27 09:26:28;;;;;;;2.67;1.50;;;;;;;15.94;68.92;102241.19;5002482;27;97054;-81
2022/10/27 09:28:54;;;;;;;2.70;2.20;;;;;;;16.01;68.86;102235.22;4996412;28;97083;-81
2022/10/27 09:31:42;;;;;;;2.30;1.70;;;;;;;16.12;69.45;102236.06;5000957;28;100384;-82
2022/10/27 09:34:25;;;;;;;8.70;1.73;;;;;;;16.22;69.56;102226.31;5007762;27;97154;-81
2022/10/27 09:36:51;;;;;;;1.77;1.33;;;;;;;16.34;69.01;102227.91;5008884;28;97430;-81
2022/10/27 09:39:16;;;;;;;2.80;2.40;;;;;;;16.43;69.11;102227.72;5002846;28;97288;-81
2022/10/27 09:41:42;;;;;;;5.33;1.90;;;;;;;16.53;69.10;102227.56;5011078;27;97901;-81
2022/10/27 09:44:20;;;;;;;6.13;1.83;;;;;;;16.67;69.47;102213.47;5006336;28;97397;-81
2022/10/27 09:46:53;;;;;;;3.10;1.90;;;;;;;16.78;69.24;102221.13;5008265;28;96906;-81
2022/10/27 09:49:26;;;;;;;4.50;1.73;;;;;;;16.89;69.17;102221.94;5010398;27;97254;-81
2022/10/27 09:51:58;;;;;;;4.93;1.77;;;;;;;17.00;69.17;102221.22;5009838;27;96810;-81
2022/10/27 09:54:35;;;;;;;2.60;2.00;;;;;;;17.13;69.34;102216.75;5002748;28;97179;-81
2022/10/27 09:57:17;;;;;;;4.43;1.53;;;;;;;17.24;69.70;102229.94;5008851;28;96821;-80
2022/10/27 09:59:49;;;;;;;7.50;2.20;;;;;;;17.38;69.53;102223.41;5006907;28;97057;-82
2022/10/27 10:02:27;;;;;;;3.17;2.27;;;;;;;17.51;69.73;102223.72;5001747;28;97360;-81
2022/10/27 10:04:53;;;;;;;4.07;1.90;;;;;;;17.62;69.38;102223.75;5006630;28;102696;-80
2022/10/27 10:07:31;;;;;;;2.53;2.33;;;;;;;17.78;69.63;102225.00;5012640;27;97964;-80
2022/10/27 10:10:19;;;;;;;4.87;2.27;;;;;;;17.86;69.54;102218.47;5006953;27;97231;-80
2022/10/27 10:12:44;;;;;;;2.93;2.00;;;;;;;17.97;69.03;102217.72;5004117;28;97624;-81
2022/10/27 10:15:10;;;;;;;4.77;2.93;;;;;;;18.10;69.20;102214.41;5007665;27;98984;-80
2022/10/27 10:17:37;;;;;;;3.40;1.90;;;;;;;18.23;69.24;102220.22;5014086;28;96861;-81
2022/10/27 10:20:04;;;;;;;7.20;2.40;;;;;;;18.35;69.23;102219.69;5011129;27;97113;-81
2022/10/27 10:22:32;;;;;;;3.10;2.50;;;;;;;18.44;69.30;102213.91;5008746;27;97315;-80
2022/10/27 10:25:19;;;;;;;6.40;2.40;;;;;;;18.56;69.40;102220.22;5002280;28;100808;-80
2022/10/27 10:27:55;;;;;;;1.93;1.83;;;;;;;18.64;69.42;102207.25;5001721;28;96773;-81
2022/10/27 10:30:22;;;;;;;4.30;2.40;;;;;;;18.76;69.33;102214.34;4988570;27;97165;-81
2022/10/27 10:32:50;;;;;;;3.80;1.70;;;;;;;18.86;69.20;102209.22;5002762;28;97802;-81
2022/10/27 10:35:38;;;;;;;2.20;1.97;;;;;;;18.97;69.14;102209.94;5002262;27;97776;-81
2022/10/27 10:38:23;;;;;;;4.57;2.37;;;;;;;19.09;69.29;102205.81;5016779;28;97011;-80
2022/10/27 10:41:09;;;;;;;2.20;2.00;;;;;;;19.24;68.86;102202.72;4999879;27;96850;-81
2022/10/27 10:43:34;;;;;;;4.20;1.97;;;;;;;19.37;68.63;102205.72;5004684;27;97088;-80
2022/10/27 10:46:00;;;;;;;2.57;2.37;;;;;;;19.50;68.73;102199.56;5010062;27;97056;-79
2022/10/27 10:48:37;;;;;;;3.37;2.77;;;;;;;19.61;68.41;102210.66;5005849;28;96992;-81
2022/10/27 10:51:04;;;;;;;2.60;2.20;;;;;;;19.74;68.31;102199.66;5023624;27;97217;-80
2022/10/27 10:53:33;;;;;;;1.80;1.70;;;;;;;19.89;68.20;102202.81;5004548;27;96715;-81
2022/10/27 10:56:24;;;;;;;4.23;2.17;;;;;;;20.04;67.88;102189.22;5009408;28;98209;-80
2022/10/27 10:59:14;;;;;;;2.47;2.10;;;;;;;20.20;67.60;102188.34;5008801;27;97233;-80
2022/10/27 11:01:47;;;;;;;5.70;2.23;;;;;;;20.34;67.33;102190.00;5004285;27;96992;-80
2022/10/27 11:04:17;;;;;;;2.10;1.70;;;;;;;20.47;67.19;102200.53;5008265;28;97127;-80
2022/10/27 11:07:05;;;;;;;6.47;2.77;;;;;;;20.64;66.43;102195.53;5004130;28;98242;-81
2022/10/27 11:09:40;;;;;;;2.00;1.83;;;;;;;20.76;66.62;102188.50;5009283;28;97041;-80
2022/10/27 11:12:33;;;;;;;5.40;2.30;;;;;;;20.90;66.24;102187.34;5005204;27;97118;-80
2022/10/27 11:15:21;;;;;;;4.10;2.20;;;;;;;21.04;66.41;102188.19;4999124;27;101998;-80
2022/10/27 11:17:50;;;;;;;1.93;1.70;;;;;;;21.13;66.17;102173.81;4999089;27;99934;-81
2022/10/27 11:20:21;;;;;;;2.00;1.90;;;;;;;21.27;65.82;102173.38;5011167;27;97061;-80
2022/10/27 11:22:50;;;;;;;1.97;1.80;;;;;;;21.41;65.53;102163.75;5005455;28;97048;-79
2022/10/27 11:25:21;;;;;;;2.00;1.80;;;;;;;21.57;65.36;102165.53;5010148;27;97272;-80
2022/10/27 11:28:03;;;;;;;4.83;2.10;;;;;;;21.80;65.02;102159.59;5002764;28;98545;-81
2022/10/27 11:30:29;;;;;;;2.50;1.73;;;;;;;21.97;64.72;102155.25;5008189;27;96895;-80
2022/10/27 11:33:20;;;;;;;1.77;1.67;;;;;;;22.10;63.52;102151.69;5012781;28;96895;-80